createdAt,value
2022-11-24T00:00:24.274Z,3.63
2022-11-24T00:02:52.618Z,3.53
2022-11-24T00:05:21.048Z,3.23
2022-11-24T00:07:49.429Z,3.77
2022-11-24T00:10:19.276Z,3.03
2022-11-24T00:12:47.528Z,2.37
2022-11-24T00:15:15.845Z,2.57
2022-11-24T00:17:44.237Z,2.20
2022-11-24T00:20:12.703Z,3.07
2022-11-24T00:22:40.946Z,2.70
2022-11-24T00:25:09.506Z,2.67
2022-11-24T00:27:39.115Z,2.50
2022-11-24T00:30:09.491Z,2.20
2022-11-24T00:32:37.743Z,2.13
2022-11-24T00:35:07.645Z,2.63
2022-11-24T00:37:36.168Z,2.27
2022-11-24T00:40:04.654Z,1.97
2022-11-24T00:42:32.932Z,2.80
2022-11-24T00:45:13.143Z,2.30
2022-11-24T00:47:41.918Z,1.83
2022-11-24T00:50:10.597Z,1.97
2022-11-24T00:52:38.881Z,2.67
2022-11-24T00:55:07.394Z,2.53
2022-11-24T00:57:36.280Z,2.33
2022-11-24T01:00:06.327Z,2.30
2022-11-24T01:02:34.857Z,2.80
2022-11-24T01:05:03.486Z,3.07
2022-11-24T01:07:32.322Z,2.97
2022-11-24T01:10:00.628Z,2.90
2022-11-24T01:12:29.001Z,3.37
2022-11-24T01:14:57.302Z,2.83
2022-11-24T01:17:26.971Z,3.33
2022-11-24T01:19:55.313Z,3.13
2022-11-24T01:22:24.937Z,2.67
2022-11-24T01:24:53.187Z,2.57
2022-11-24T01:27:21.473Z,3.00
2022-11-24T01:29:49.703Z,2.87
2022-11-24T01:32:18.183Z,3.60
2022-11-24T01:34:47.855Z,2.73
2022-11-24T01:37:16.118Z,3.00
2022-11-24T01:39:44.548Z,2.50
2022-11-24T01:42:12.863Z,2.83
2022-11-24T01:44:43.436Z,2.83
2022-11-24T01:47:19.619Z,3.03
2022-11-24T01:49:49.895Z,2.50
2022-11-24T01:52:19.457Z,3.50
2022-11-24T01:54:48.873Z,3.00
2022-11-24T01:57:17.734Z,2.60
2022-11-24T01:59:46.467Z,3.17
2022-11-24T02:02:14.763Z,3.63
2022-11-24T02:04:43.185Z,2.97
2022-11-24T02:07:12.877Z,3.20
2022-11-24T02:09:42.340Z,3.73
2022-11-24T02:12:10.673Z,2.67
2022-11-24T02:14:39.446Z,3.20
2022-11-24T02:17:08.497Z,2.87
2022-11-24T02:19:39.357Z,2.77
2022-11-24T02:22:07.741Z,2.50
2022-11-24T02:24:39.268Z,2.60
2022-11-24T02:27:08.900Z,2.60
2022-11-24T02:29:37.148Z,2.37
2022-11-24T02:32:06.043Z,2.40
2022-11-24T02:34:34.571Z,2.43
2022-11-24T02:37:03.096Z,1.97
2022-11-24T02:39:31.399Z,2.53
2022-11-24T02:42:00.912Z,3.13
2022-11-24T02:44:30.908Z,1.97
2022-11-24T02:47:05.872Z,2.47
2022-11-24T02:49:34.183Z,1.90
2022-11-24T02:52:02.503Z,2.10
2022-11-24T02:54:30.911Z,1.70
2022-11-24T02:56:59.267Z,2.03
2022-11-24T02:59:27.533Z,2.10
2022-11-24T03:01:57.209Z,2.20
2022-11-24T03:04:25.518Z,1.73
2022-11-24T03:06:53.766Z,1.63
2022-11-24T03:09:22.035Z,2.00
2022-11-24T03:11:50.329Z,1.60
2022-11-24T03:14:18.580Z,1.93
2022-11-24T03:16:46.841Z,1.50
2022-11-24T03:19:16.599Z,1.40
2022-11-24T03:21:44.859Z,2.23
2022-11-24T03:24:13.156Z,1.30
2022-11-24T03:26:41.991Z,1.90
2022-11-24T03:29:10.311Z,1.50
2022-11-24T03:31:38.690Z,0.97
2022-11-24T03:34:06.977Z,1.63
2022-11-24T03:36:36.686Z,1.10
2022-11-24T03:39:04.987Z,1.13
2022-11-24T03:41:33.256Z,0.90
2022-11-24T03:44:01.510Z,1.23
2022-11-24T03:46:29.885Z,1.47
2022-11-24T03:48:58.281Z,1.50
2022-11-24T03:51:26.552Z,1.27
2022-11-24T03:53:56.185Z,1.30
2022-11-24T03:56:24.443Z,1.07
2022-11-24T03:58:52.714Z,1.17
2022-11-24T04:01:21.144Z,1.43
2022-11-24T04:03:49.487Z,1.30
2022-11-24T04:06:17.879Z,1.30
2022-11-24T04:08:46.156Z,0.90
2022-11-24T04:11:29.659Z,1.43
2022-11-24T04:13:57.956Z,0.87
2022-11-24T04:16:26.336Z,1.13
2022-11-24T04:18:54.769Z,1.27
2022-11-24T04:21:23.147Z,1.00
2022-11-24T04:23:51.419Z,0.90
2022-11-24T04:26:21.100Z,1.00
2022-11-24T04:28:49.401Z,1.10
2022-11-24T04:31:18.284Z,1.00
2022-11-24T04:33:46.672Z,1.30
2022-11-24T04:36:15.052Z,1.30
2022-11-24T04:39:23.290Z,0.70
2022-11-24T04:41:33.148Z,0.90
2022-11-24T04:44:01.415Z,0.80
2022-11-24T04:46:29.755Z,0.80
2022-11-24T04:48:58.061Z,0.97
2022-11-24T04:51:26.353Z,0.93
2022-11-24T04:53:54.689Z,1.10
2022-11-24T04:56:22.961Z,1.10
2022-11-24T04:58:52.553Z,0.93
2022-11-24T05:01:20.834Z,1.10
2022-11-24T05:03:49.216Z,0.60
2022-11-24T05:06:17.483Z,0.80
2022-11-24T05:08:45.822Z,0.77
2022-11-24T05:11:14.251Z,1.17
2022-11-24T05:13:42.541Z,0.70
2022-11-24T05:16:12.191Z,0.80
2022-11-24T05:18:40.571Z,0.70
2022-11-24T05:21:09.037Z,0.70
2022-11-24T05:23:37.525Z,0.43
2022-11-24T05:26:05.956Z,0.70
2022-11-24T05:28:34.272Z,0.60
2022-11-24T05:31:02.803Z,0.50
2022-11-24T05:33:33.390Z,0.60
2022-11-24T05:36:02.331Z,1.00
2022-11-24T05:38:30.698Z,0.60
2022-11-24T05:41:01.604Z,0.57
2022-11-24T05:43:29.931Z,0.50
2022-11-24T05:46:00.357Z,0.60
2022-11-24T05:48:28.621Z,0.53
2022-11-24T05:50:58.402Z,0.57
2022-11-24T05:53:27.110Z,0.30
2022-11-24T05:55:55.399Z,0.40
2022-11-24T05:58:23.715Z,0.60
2022-11-24T06:00:52.025Z,0.60
2022-11-24T06:03:20.392Z,0.53
2022-11-24T06:05:48.883Z,0.50
2022-11-24T06:08:18.548Z,0.43
2022-11-24T06:10:46.847Z,0.53
2022-11-24T06:13:15.334Z,0.57
2022-11-24T06:15:43.761Z,0.50
2022-11-24T06:18:12.131Z,0.60
2022-11-24T06:20:40.548Z,0.63
2022-11-24T06:23:08.866Z,0.40
2022-11-24T06:25:38.544Z,0.40
2022-11-24T06:28:07.834Z,0.57
2022-11-24T06:30:36.092Z,0.67
2022-11-24T06:33:04.386Z,0.30
2022-11-24T06:35:32.805Z,0.43
2022-11-24T06:38:01.371Z,0.40
2022-11-24T06:40:29.640Z,0.50
2022-11-24T06:42:59.316Z,0.33
2022-11-24T06:45:27.603Z,0.40
2022-11-24T06:47:56.035Z,0.50
2022-11-24T06:50:26.941Z,0.70
2022-11-24T06:52:58.923Z,0.90
2022-11-24T06:55:27.274Z,0.50
2022-11-24T06:57:55.551Z,0.50
2022-11-24T07:00:25.398Z,0.50
2022-11-24T07:02:53.879Z,0.40
2022-11-24T07:05:22.182Z,0.70
2022-11-24T07:07:51.122Z,0.50
2022-11-24T07:10:19.662Z,0.57
2022-11-24T07:12:48.034Z,0.40
2022-11-24T07:15:16.368Z,0.30
2022-11-24T07:17:46.127Z,0.50
2022-11-24T07:20:14.682Z,0.60
2022-11-24T07:22:42.985Z,0.87
2022-11-24T07:25:14.007Z,0.40
2022-11-24T07:27:42.381Z,0.37
2022-11-24T07:30:10.997Z,0.23
2022-11-24T07:32:39.371Z,0.40
2022-11-24T07:35:09.531Z,0.37
2022-11-24T07:37:37.866Z,0.40
2022-11-24T07:40:06.797Z,0.60
2022-11-24T07:42:35.101Z,0.23
2022-11-24T07:45:03.371Z,0.80
2022-11-24T07:47:31.788Z,0.40
2022-11-24T07:50:00.111Z,0.40
2022-11-24T07:52:29.780Z,0.40
2022-11-24T07:54:58.209Z,0.57
2022-11-24T07:57:26.552Z,0.30
2022-11-24T07:59:54.915Z,0.43
2022-11-24T08:02:23.335Z,0.43
2022-11-24T08:04:51.593Z,0.50
2022-11-24T08:07:20.037Z,0.30
2022-11-24T08:09:50.454Z,0.40
2022-11-24T08:12:21.623Z,0.23
2022-11-24T08:14:50.806Z,0.27
2022-11-24T08:17:19.092Z,0.40
2022-11-24T08:19:47.619Z,0.40
2022-11-24T08:22:15.978Z,0.33
2022-11-24T08:24:47.617Z,0.50
2022-11-24T08:27:17.490Z,0.67
2022-11-24T08:29:45.772Z,0.47
2022-11-24T08:32:20.431Z,0.40
2022-11-24T08:34:50.502Z,0.40
2022-11-24T08:37:18.810Z,0.70
2022-11-24T08:39:47.329Z,0.70
2022-11-24T08:42:17.126Z,0.60
2022-11-24T08:44:45.503Z,0.60
2022-11-24T08:47:13.858Z,0.27
2022-11-24T08:49:43.036Z,0.57
2022-11-24T08:52:11.414Z,0.30
2022-11-24T08:54:40.794Z,0.30
2022-11-24T08:57:09.171Z,0.50
2022-11-24T08:59:38.822Z,0.83
2022-11-24T09:02:07.191Z,0.37
2022-11-24T09:04:35.843Z,0.57
2022-11-24T09:07:04.268Z,0.40
2022-11-24T09:09:32.564Z,0.63
2022-11-24T09:12:01.036Z,0.50
2022-11-24T09:14:29.574Z,0.50
2022-11-24T09:16:59.313Z,0.50
2022-11-24T09:19:27.856Z,0.30
2022-11-24T09:21:56.128Z,0.40
2022-11-24T09:24:24.466Z,0.40
2022-11-24T09:26:52.900Z,0.77
2022-11-24T09:29:21.269Z,0.40
2022-11-24T09:31:49.550Z,0.50
2022-11-24T09:34:19.355Z,0.57
2022-11-24T09:36:47.679Z,0.40
2022-11-24T09:39:16.107Z,0.20
2022-11-24T09:41:51.217Z,0.63
2022-11-24T09:44:26.451Z,0.50
2022-11-24T09:46:56.146Z,0.57
2022-11-24T09:49:26.444Z,0.50
2022-11-24T09:51:54.793Z,0.50
2022-11-24T09:54:23.718Z,0.40
2022-11-24T09:56:52.266Z,0.47
2022-11-24T09:59:20.751Z,0.50
2022-11-24T10:01:49.434Z,0.30
2022-11-24T10:04:18.401Z,0.63
2022-11-24T10:06:49.702Z,0.40
2022-11-24T10:09:23.065Z,0.50
2022-11-24T10:11:54.161Z,1.30
2022-11-24T10:14:33.319Z,0.60
2022-11-24T10:17:03.571Z,0.60
2022-11-24T10:19:37.341Z,0.50
2022-11-24T10:22:11.155Z,0.53
2022-11-24T10:24:58.665Z,0.50
2022-11-24T10:27:28.590Z,0.40
2022-11-24T10:29:57.043Z,0.30
2022-11-24T10:32:26.152Z,0.30
2022-11-24T10:34:54.471Z,0.40
2022-11-24T10:37:24.607Z,0.70
2022-11-24T10:39:59.856Z,0.30
2022-11-24T10:42:28.911Z,0.57
2022-11-24T10:45:03.748Z,0.30
2022-11-24T10:47:32.134Z,0.87
2022-11-24T10:50:02.811Z,1.87
2022-11-24T10:52:33.153Z,3.93
2022-11-24T10:55:02.006Z,4.53
2022-11-24T10:57:31.362Z,5.50
2022-11-24T10:59:59.732Z,5.33
2022-11-24T11:02:33.221Z,5.43
2022-11-24T11:05:01.850Z,4.73
2022-11-24T11:07:30.294Z,5.33
2022-11-24T11:10:17.476Z,5.03
2022-11-24T11:12:47.279Z,4.63
2022-11-24T11:15:28.675Z,4.27
2022-11-24T11:17:58.493Z,5.00
2022-11-24T11:20:29.339Z,4.37
2022-11-24T11:22:57.652Z,4.60
2022-11-24T11:25:27.093Z,4.23
2022-11-24T11:28:03.000Z,3.23
2022-11-24T11:36:12.814Z,3.20
2022-11-24T11:38:41.388Z,3.43
2022-11-24T11:41:10.631Z,2.80
2022-11-24T11:43:40.914Z,3.20
2022-11-24T11:46:11.740Z,3.00
2022-11-24T11:48:43.633Z,3.20
2022-11-24T11:51:25.015Z,2.60
2022-11-24T11:53:54.623Z,2.83
2022-11-24T11:56:24.015Z,2.87
2022-11-24T11:59:10.804Z,2.60
2022-11-24T12:01:54.153Z,2.70
2022-11-24T12:04:25.162Z,2.23
2022-11-24T12:06:57.922Z,2.40
2022-11-24T12:09:29.188Z,2.43
2022-11-24T12:12:01.750Z,2.57
2022-11-24T12:14:31.526Z,1.80
2022-11-24T12:17:01.809Z,2.40
2022-11-24T12:19:35.861Z,2.47
2022-11-24T12:22:07.419Z,2.23
2022-11-24T12:24:38.304Z,2.80
2022-11-24T12:27:07.466Z,2.97
2022-11-24T12:29:44.579Z,3.33
2022-11-24T12:32:13.605Z,3.67
2022-11-24T12:34:46.443Z,3.20
2022-11-24T12:37:19.241Z,3.10
2022-11-24T12:39:49.078Z,3.30
2022-11-24T12:42:20.513Z,4.20
2022-11-24T12:44:53.625Z,4.30
2022-11-24T12:47:23.515Z,4.57
2022-11-24T12:49:56.156Z,4.40
2022-11-24T12:52:24.813Z,4.70
2022-11-24T12:54:53.160Z,4.13
2022-11-24T12:57:22.932Z,4.83
2022-11-24T12:59:53.311Z,4.10
2022-11-24T13:02:23.374Z,5.10
2022-11-24T13:04:52.987Z,4.47
2022-11-24T13:07:23.502Z,4.33
2022-11-24T13:10:15.611Z,4.70
2022-11-24T13:12:54.958Z,4.43
2022-11-24T13:15:44.561Z,4.37
2022-11-24T13:18:37.265Z,4.27
2022-11-24T13:21:05.845Z,4.07
2022-11-24T13:23:35.529Z,4.13
2022-11-24T13:26:15.366Z,3.37
2022-11-24T13:29:08.889Z,4.40
2022-11-24T13:31:41.828Z,3.53
2022-11-24T13:34:25.008Z,3.93
2022-11-24T13:36:54.880Z,3.67
2022-11-24T13:39:25.712Z,3.37
2022-11-24T13:42:03.014Z,17.67
2022-11-24T13:44:40.570Z,39.07
2022-11-24T13:47:29.392Z,37.30
2022-11-24T13:49:57.726Z,33.60
2022-11-24T13:52:40.055Z,27.53
2022-11-24T13:55:21.476Z,27.00
2022-11-24T13:57:50.388Z,22.57
2022-11-24T14:00:20.426Z,23.37
2022-11-24T14:02:48.776Z,27.97
2022-11-24T14:05:17.281Z,41.30
2022-11-24T14:07:45.675Z,55.10
2022-11-24T14:10:15.898Z,55.03
2022-11-24T14:12:45.684Z,63.87
2022-11-24T14:15:22.496Z,63.30
2022-11-24T14:17:51.014Z,58.80
2022-11-24T14:20:24.111Z,54.33
2022-11-24T14:22:52.577Z,51.97
2022-11-24T14:25:22.714Z,54.37
2022-11-24T14:27:52.413Z,51.07
2022-11-24T14:30:21.567Z,46.87
2022-11-24T14:32:56.879Z,45.60
2022-11-24T14:35:25.508Z,44.70
2022-11-24T14:37:53.856Z,41.97
2022-11-24T14:40:39.615Z,41.17
2022-11-24T14:43:16.368Z,38.37
2022-11-24T14:45:49.676Z,36.30
2022-11-24T14:48:17.976Z,39.33
2022-11-24T14:50:46.278Z,35.10
2022-11-24T14:53:15.862Z,34.73
2022-11-24T14:55:44.118Z,32.63
2022-11-24T14:58:23.291Z,34.17
2022-11-24T15:01:06.531Z,31.43
2022-11-24T15:03:34.997Z,31.17
2022-11-24T15:06:03.307Z,30.30
2022-11-24T15:08:33.003Z,28.10
2022-11-24T15:11:01.484Z,27.70
2022-11-24T15:13:31.671Z,28.83
2022-11-24T15:16:02.882Z,27.37
2022-11-24T15:18:34.410Z,28.90
2022-11-24T15:21:02.718Z,26.50
2022-11-24T15:23:31.321Z,25.20
2022-11-24T15:25:59.795Z,24.73
2022-11-24T15:28:28.086Z,23.53
2022-11-24T15:30:58.042Z,24.03
2022-11-24T15:33:26.354Z,21.83
2022-11-24T15:35:54.701Z,19.67
2022-11-24T15:38:23.181Z,20.30
2022-11-24T15:40:51.916Z,19.63
2022-11-24T15:43:21.261Z,18.83
2022-11-24T15:45:49.748Z,17.97
2022-11-24T15:48:19.549Z,19.87
2022-11-24T15:50:47.930Z,18.10
2022-11-24T15:53:17.586Z,17.37
2022-11-24T15:55:45.910Z,16.13
2022-11-24T15:58:14.589Z,16.17
2022-11-24T16:00:43.240Z,15.27
2022-11-24T16:03:44.615Z,13.00
2022-11-24T16:06:01.407Z,14.57
2022-11-24T16:08:29.675Z,13.73
2022-11-24T16:10:58.131Z,14.13
2022-11-24T16:13:26.544Z,13.00
2022-11-24T16:15:54.914Z,13.27
2022-11-24T16:18:23.402Z,13.00
2022-11-24T16:20:51.732Z,11.43
2022-11-24T16:23:21.485Z,13.03
2022-11-24T16:25:49.780Z,12.13
2022-11-24T16:28:18.364Z,11.40
2022-11-24T16:30:49.704Z,11.30
2022-11-24T16:33:18.046Z,12.07
2022-11-24T16:35:48.252Z,9.27
2022-11-24T16:38:17.282Z,9.47
2022-11-24T16:40:47.172Z,9.23
2022-11-24T16:43:15.576Z,8.73
2022-11-24T16:45:45.584Z,9.73
2022-11-24T16:48:14.113Z,9.40
2022-11-24T16:50:42.539Z,8.63
2022-11-24T16:53:10.998Z,7.83
2022-11-24T16:55:39.338Z,7.27
2022-11-24T16:58:09.068Z,7.30
2022-11-24T17:00:37.335Z,7.17
2022-11-24T17:03:05.763Z,7.40
2022-11-24T17:05:34.102Z,7.13
2022-11-24T17:08:02.406Z,6.70
2022-11-24T17:10:30.741Z,7.00
2022-11-24T17:12:59.056Z,6.93
2022-11-24T17:15:35.483Z,7.63
2022-11-24T17:18:24.127Z,6.17
2022-11-24T17:20:53.428Z,7.17
2022-11-24T17:23:21.926Z,5.97
2022-11-24T17:25:50.231Z,5.60
2022-11-24T17:28:18.630Z,5.43
2022-11-24T17:30:48.565Z,6.57
2022-11-24T17:33:17.525Z,4.77
2022-11-24T17:35:45.839Z,6.40
2022-11-24T17:38:14.347Z,5.77
2022-11-24T17:40:42.668Z,6.00
2022-11-24T17:43:11.001Z,5.67
2022-11-24T17:45:39.521Z,5.43
2022-11-24T17:48:09.419Z,5.80
2022-11-24T17:50:37.722Z,6.70
2022-11-24T17:53:06.156Z,5.67
2022-11-24T17:55:34.489Z,8.00
2022-11-24T17:58:02.731Z,6.37
2022-11-24T18:00:31.295Z,5.40
2022-11-24T18:03:00.391Z,6.27
2022-11-24T18:05:30.145Z,6.73
2022-11-24T18:07:58.506Z,5.57
2022-11-24T18:10:26.871Z,6.17
2022-11-24T18:12:55.103Z,5.50
2022-11-24T18:15:23.652Z,4.90
2022-11-24T18:17:53.393Z,4.90
2022-11-24T18:20:21.763Z,4.97
2022-11-24T18:23:05.632Z,4.80
2022-11-24T18:25:37.179Z,4.30
2022-11-24T18:28:05.749Z,4.57
2022-11-24T18:30:34.065Z,4.63
2022-11-24T18:33:02.334Z,4.90
2022-11-24T18:35:30.648Z,5.30
2022-11-24T18:38:00.321Z,4.93
2022-11-24T18:40:28.629Z,5.00
2022-11-24T18:42:57.092Z,4.73
2022-11-24T18:45:25.449Z,4.77
2022-11-24T18:47:53.841Z,4.70
2022-11-24T18:50:22.570Z,4.30
2022-11-24T18:52:50.908Z,4.70
2022-11-24T18:55:20.590Z,4.50
2022-11-24T18:57:49.047Z,4.83
2022-11-24T19:00:17.909Z,5.17
2022-11-24T19:02:46.248Z,4.97
2022-11-24T19:05:14.684Z,4.83
2022-11-24T19:07:42.964Z,4.33
2022-11-24T19:10:11.813Z,5.77
2022-11-24T19:12:41.701Z,5.40
2022-11-24T19:15:10.465Z,4.67
2022-11-24T19:17:38.786Z,6.40
2022-11-24T19:20:07.956Z,6.07
2022-11-24T19:22:36.340Z,6.57
2022-11-24T19:25:04.655Z,6.53
2022-11-24T19:27:34.310Z,5.27
2022-11-24T19:30:04.028Z,6.10
2022-11-24T19:32:32.960Z,6.00
2022-11-24T19:35:01.325Z,6.33
2022-11-24T19:37:29.833Z,10.90
2022-11-24T19:39:58.117Z,157.13
2022-11-24T19:42:26.557Z,237.00
2022-11-24T19:44:56.631Z,279.40
2022-11-24T19:47:27.860Z,271.07
2022-11-24T19:49:56.546Z,269.73
2022-11-24T19:52:24.836Z,263.97
2022-11-24T19:54:53.248Z,248.60
2022-11-24T19:57:21.642Z,185.50
2022-11-24T19:59:51.498Z,154.53
2022-11-24T20:02:20.035Z,139.63
2022-11-24T20:04:50.043Z,129.23
2022-11-24T20:07:19.050Z,119.37
2022-11-24T20:09:47.576Z,116.83
2022-11-24T20:12:15.772Z,109.13
2022-11-24T20:14:44.107Z,106.17
2022-11-24T20:17:14.335Z,98.53
2022-11-24T20:19:42.709Z,95.30
2022-11-24T20:22:12.428Z,92.20
2022-11-24T20:24:40.910Z,92.80
2022-11-24T20:27:09.196Z,78.90
2022-11-24T20:29:39.432Z,78.20
2022-11-24T20:32:11.596Z,68.43
2022-11-24T20:34:40.042Z,72.40
2022-11-24T20:37:13.347Z,69.00
2022-11-24T20:39:43.016Z,61.80
2022-11-24T20:42:11.337Z,61.13
2022-11-24T20:44:39.812Z,59.90
2022-11-24T20:47:08.149Z,58.37
2022-11-24T20:49:36.425Z,53.87
2022-11-24T20:52:04.879Z,50.03
2022-11-24T20:54:33.565Z,48.60
2022-11-24T20:57:03.438Z,45.80
2022-11-24T20:59:31.857Z,42.87
2022-11-24T21:02:00.230Z,41.83
2022-11-24T21:04:28.578Z,40.60
2022-11-24T21:06:57.029Z,39.00
2022-11-24T21:09:27.198Z,38.30
2022-11-24T21:11:55.794Z,34.43
2022-11-24T21:14:25.612Z,34.23
2022-11-24T21:16:54.174Z,31.47
2022-11-24T21:19:22.614Z,31.20
2022-11-24T21:21:51.109Z,30.97
2022-11-24T21:24:21.561Z,31.40
2022-11-24T21:26:51.881Z,34.17
2022-11-24T21:29:23.375Z,32.60
2022-11-24T21:31:53.325Z,31.37
2022-11-24T21:34:21.689Z,31.00
2022-11-24T21:36:49.981Z,31.50
2022-11-24T21:39:18.737Z,29.40
2022-11-24T21:41:47.622Z,30.53
2022-11-24T21:44:16.056Z,32.10
2022-11-24T21:46:49.618Z,29.50
2022-11-24T21:49:23.892Z,29.13
2022-11-24T21:51:55.969Z,28.90
2022-11-24T21:54:24.508Z,27.67
2022-11-24T21:56:52.833Z,26.40
2022-11-24T21:59:22.488Z,26.13
2022-11-24T22:01:50.978Z,24.07
2022-11-24T22:04:19.327Z,22.43
2022-11-24T22:06:48.993Z,21.33
2022-11-24T22:09:18.364Z,20.77
2022-11-24T22:11:49.193Z,22.10
2022-11-24T22:14:17.826Z,21.63
2022-11-24T22:16:46.218Z,19.77
2022-11-24T22:19:14.552Z,19.63
2022-11-24T22:21:42.956Z,18.43
2022-11-24T22:24:12.711Z,18.67
2022-11-24T22:26:41.120Z,18.00
2022-11-24T22:29:09.468Z,18.87
2022-11-24T22:31:37.832Z,17.10
2022-11-24T22:34:06.362Z,15.00
2022-11-24T22:36:36.631Z,15.03
2022-11-24T22:39:05.619Z,13.63
2022-11-24T22:41:36.012Z,14.40
2022-11-24T22:44:04.311Z,13.93
2022-11-24T22:46:32.749Z,15.33
2022-11-24T22:49:01.530Z,16.00
2022-11-24T22:51:31.229Z,14.70
2022-11-24T22:54:00.196Z,16.60
2022-11-24T22:56:29.707Z,15.70
2022-11-24T22:58:59.517Z,16.40
2022-11-24T23:01:28.189Z,17.87
2022-11-24T23:03:56.656Z,16.80
2022-11-24T23:06:25.367Z,15.10
2022-11-24T23:08:53.650Z,15.77
2022-11-24T23:11:26.216Z,16.57
2022-11-24T23:14:01.294Z,14.70
2022-11-24T23:16:29.901Z,13.63
2022-11-24T23:18:58.293Z,14.13
2022-11-24T23:21:27.021Z,14.97
2022-11-24T23:23:55.605Z,13.83
2022-11-24T23:26:24.331Z,13.83
2022-11-24T23:28:52.698Z,12.87
2022-11-24T23:31:24.312Z,12.23
2022-11-24T23:33:52.679Z,12.27
2022-11-24T23:36:21.326Z,12.43
2022-11-24T23:38:49.730Z,11.70
2022-11-24T23:41:18.597Z,10.20
2022-11-24T23:43:46.880Z,10.20
2022-11-24T23:46:15.735Z,11.73
2022-11-24T23:48:45.509Z,10.57
2022-11-24T23:51:14.318Z,10.97
2022-11-24T23:53:42.675Z,12.00
2022-11-24T23:56:11.673Z,12.00
2022-11-24T23:58:40.012Z,11.47
